»·PEaware :: DCM206 KSNA-KSNA

DCM206 :: KSNA-KSNA

FLIGHT INFORMATION

Flight Status: Arrived
Operator:
DotCom
More flights by this operator :: More flights under this callsign
Pilot: Nick L. (7253)
Aircraft: Unknown
(A19N)
More flights by this aircraft type
Origin: KSNA John Wayne-Orange Co
United States
Destination: KSNA John Wayne-Orange Co
United States
More flights between these airports :: More routes between these airports
Route: SLI
File this flight plan on PilotEdge
Remarks: Multiple approaches to be conducted at SNA
Altitude:
(Current/Filed)
5,000ft
Speed:
(Current/Filed)
250kts
Departed: 17-Feb-21 04:23 PM
Arrived: 17-Feb-21 04:54 PM
Distance/Time
Traveled:
0nm/0:30
Distance/Time
To Go:
Arrived

Flight Plot

Page will automatically refresh every two minutes.


Map Options




Map Legend


Flown Route
Filed Route
Departure Airport
Arrival Airport
Navaid (VOR, NDB)
Fix

Horizontal Profiles

Position Reports

Time Latitude Longitude Heading Altitude Ground
Speed
17-Feb-21 16:05 33.672474 -117.867065 210 64ft 0kts
17-Feb-21 16:06 33.672474 -117.867065 210 64ft 0kts
17-Feb-21 16:07 33.672474 -117.867065 210 64ft 0kts
17-Feb-21 16:08 33.672474 -117.867065 210 64ft 0kts
17-Feb-21 16:09 33.672474 -117.867065 210 64ft 0kts
17-Feb-21 16:10 33.672474 -117.867065 210 64ft 0kts
17-Feb-21 16:11 33.672474 -117.867065 210 64ft 0kts
17-Feb-21 16:12 33.672474 -117.867065 210 64ft 0kts
17-Feb-21 16:13 33.672474 -117.867065 210 64ft 0kts
17-Feb-21 16:14 33.672474 -117.867065 210 64ft 0kts
17-Feb-21 16:15 33.672474 -117.867065 210 64ft 0kts
17-Feb-21 16:16 33.672474 -117.867065 210 64ft 0kts
17-Feb-21 16:16 33.672474 -117.867065 210 64ft 0kts
17-Feb-21 16:18 33.672517 -117.867260 344 64ft 4kts
17-Feb-21 16:19 33.672885 -117.867270 11 64ft 7kts
17-Feb-21 16:19 33.675788 -117.865440 28 64ft 16kts
17-Feb-21 16:20 33.680226 -117.862628 11 64ft 8kts
17-Feb-21 16:22 33.680730 -117.865655 208 64ft 34kts
17-Feb-21 16:23 33.649896 -117.879536 187 1588ft 144kts
17-Feb-21 16:23 33.612290 -117.881107 186 3102ft 190kts
17-Feb-21 16:24 33.553329 -117.895381 232 4879ft 253kts
17-Feb-21 16:26 33.577914 -117.972295 321 4961ft 251kts
17-Feb-21 16:26 33.625257 -118.012807 321 4959ft 250kts
17-Feb-21 16:27 33.681984 -118.061221 321 4959ft 250kts
17-Feb-21 16:28 33.738561 -118.109370 321 4959ft 249kts
17-Feb-21 16:29 33.801562 -118.131225 27 4248ft 272kts
17-Feb-21 16:30 33.849984 -118.059512 52 2969ft 275kts
17-Feb-21 16:31 33.897102 -117.986500 51 2959ft 276kts
17-Feb-21 16:32 33.944873 -117.914263 51 2959ft 276kts
17-Feb-21 16:33 33.993050 -117.841890 51 2956ft 277kts
17-Feb-21 16:34 34.002472 -117.763478 113 2947ft 247kts
17-Feb-21 16:35 33.947522 -117.741885 181 2937ft 207kts
17-Feb-21 16:36 33.889460 -117.747817 181 2943ft 216kts
17-Feb-21 16:37 33.834106 -117.768646 209 2940ft 208kts
17-Feb-21 16:38 33.782904 -117.800964 210 2284ft 199kts
17-Feb-21 16:39 33.738571 -117.829004 210 1323ft 157kts
17-Feb-21 16:40 33.704406 -117.850675 210 592ft 134kts
17-Feb-21 16:41 33.670368 -117.872414 211 1711ft 148kts
17-Feb-21 16:42 33.625455 -117.901474 211 2971ft 206kts
17-Feb-21 16:43 33.574669 -117.933328 211 2987ft 206kts
17-Feb-21 16:44 33.533190 -117.976416 255 3856ft 206kts
17-Feb-21 16:45 33.567712 -118.014201 14 4991ft 221kts
17-Feb-21 16:46 33.624592 -117.984377 18 4987ft 223kts
17-Feb-21 16:47 33.681066 -117.954046 18 4987ft 223kts
17-Feb-21 16:48 33.736526 -117.920512 22 4269ft 225kts
17-Feb-21 16:49 33.786843 -117.882808 58 3478ft 219kts
17-Feb-21 16:50 33.769842 -117.823754 164 2534ft 198kts
17-Feb-21 16:51 33.721780 -117.839130 210 975ft 180kts
17-Feb-21 16:52 33.684235 -117.863377 210 140ft 126kts
17-Feb-21 16:53 33.669466 -117.871943 144 64ft 19kts
17-Feb-21 16:54 33.669172 -117.871595 122 64ft 0kts

Navigation Log

Ident Type
Flight plan parsing failed, navigation log unavailable